Time;durP1;ratioP1;P1;durP2;ratioP2;P2;SDS_P1;SDS_P2;PMS_P1;PMS_P2;Temp;Humidity;BMP_temperature;BMP_pressure;BME280_temperature;BME280_humidity;BME280_pressure;Samples;Min_cycle;Max_cycle;Signal;HPM_P1;HPM_P2
2022/01/10 00:00:31;;;;;;;22.83;10.40;;;0.80;99.90;;;;;;5085228;28;20211;-63
2022/01/10 00:03:00;;;;;;;21.87;9.57;;;0.80;99.90;;;;;;5071894;28;20666;-62
2022/01/10 00:05:27;;;;;;;16.70;8.63;;;0.80;99.90;;;;;;5084612;28;20726;-63
2022/01/10 00:07:54;;;;;;;16.10;8.03;;;0.80;99.90;;;;;;5080923;28;20589;-63
2022/01/10 00:10:21;;;;;;;15.70;7.60;;;0.80;99.90;;;;;;5083680;28;20212;-64
2022/01/10 00:12:49;;;;;;;18.57;8.33;;;0.80;99.90;;;;;;5089598;28;20715;-62
2022/01/10 00:15:17;;;;;;;14.60;6.70;;;0.90;99.90;;;;;;5089938;28;20299;-62
2022/01/10 00:17:45;;;;;;;12.50;6.90;;;0.90;99.90;;;;;;5081967;28;20204;-63
2022/01/10 00:20:15;;;;;;;11.77;6.17;;;0.90;99.90;;;;;;5088334;28;20582;-63
2022/01/10 00:22:45;;;;;;;11.53;5.83;;;0.90;99.90;;;;;;5083749;28;20660;-63
2022/01/10 00:25:14;;;;;;;10.27;5.47;;;0.70;99.90;;;;;;5090258;28;20575;-64
2022/01/10 00:27:42;;;;;;;31.47;13.50;;;0.80;99.90;;;;;;5090846;28;20213;-64
2022/01/10 00:30:10;;;;;;;21.97;10.43;;;0.80;99.90;;;;;;5081970;28;20289;-63
2022/01/10 00:32:40;;;;;;;35.23;14.50;;;0.80;99.90;;;;;;5093640;28;20765;-62
2022/01/10 00:35:09;;;;;;;23.50;11.33;;;0.90;99.90;;;;;;5057753;28;20255;-62
2022/01/10 00:37:39;;;;;;;28.17;12.00;;;0.90;99.90;;;;;;5065896;28;20568;-62
2022/01/10 00:40:07;;;;;;;22.67;10.23;;;0.90;99.90;;;;;;5070039;28;20725;-64
2022/01/10 00:42:34;;;;;;;20.03;9.80;;;0.90;99.90;;;;;;5084418;28;20200;-63
2022/01/10 00:45:07;;;;;;;25.67;10.97;;;0.90;99.90;;;;;;5086502;28;20204;-62
2022/01/10 00:47:34;;;;;;;27.53;11.97;;;0.90;99.90;;;;;;5090524;28;20188;-63
2022/01/10 00:50:03;;;;;;;21.37;9.97;;;0.80;99.90;;;;;;5092172;28;20193;-64
2022/01/10 00:52:30;;;;;;;22.73;10.80;;;0.80;99.90;;;;;;5072135;28;20189;-63
2022/01/10 00:54:57;;;;;;;20.83;9.87;;;0.80;99.90;;;;;;5083729;28;20282;-63
2022/01/10 00:57:24;;;;;;;19.23;8.80;;;0.80;99.90;;;;;;5084041;28;20679;-63
2022/01/10 00:59:51;;;;;;;17.93;8.13;;;0.80;99.90;;;;;;5079570;28;20721;-63
2022/01/10 01:02:20;;;;;;;17.77;8.13;;;0.80;99.90;;;;;;5087949;28;20193;-62
2022/01/10 01:04:47;;;;;;;15.60;6.77;;;0.70;99.90;;;;;;5088244;28;20690;-63
2022/01/10 01:07:16;;;;;;;13.43;6.73;;;0.70;99.90;;;;;;5067921;28;20208;-63
2022/01/10 01:09:49;;;;;;;10.10;5.73;;;0.70;99.90;;;;;;5078676;28;20196;-63
2022/01/10 01:12:28;;;;;;;11.53;6.10;;;0.80;99.90;;;;;;5062361;28;20217;-62
2022/01/10 01:15:06;;;;;;;9.27;4.80;;;0.80;99.90;;;;;;5060540;28;20572;-63
2022/01/10 01:17:46;;;;;;;14.10;6.20;;;0.80;99.90;;;;;;5072299;28;20211;-62
2022/01/10 01:25:50;;;;;;;10.87;6.10;;;0.70;99.90;;;;;;5080189;28;20261;-63
2022/01/10 01:28:18;;;;;;;27.90;12.10;;;0.70;99.90;;;;;;5091888;28;20193;-63
2022/01/10 01:30:46;;;;;;;30.93;13.17;;;0.70;99.90;;;;;;5086034;28;20209;-62
2022/01/10 01:33:14;;;;;;;26.50;11.70;;;0.80;99.90;;;;;;5060794;28;20203;-63
2022/01/10 01:35:42;;;;;;;22.27;10.40;;;0.80;99.90;;;;;;5067311;28;20197;-63
2022/01/10 01:38:10;;;;;;;17.33;8.80;;;0.80;99.90;;;;;;5057129;28;20197;-64
2022/01/10 01:40:43;;;;;;;14.23;7.80;;;0.80;99.90;;;;;;5061270;28;20185;-63
2022/01/10 01:43:10;;;;;;;13.70;6.90;;;0.80;99.90;;;;;;5087482;28;20220;-63
2022/01/10 01:45:39;;;;;;;14.27;6.93;;;0.70;99.90;;;;;;5070041;28;20231;-63
2022/01/10 01:48:08;;;;;;;13.30;6.30;;;0.70;99.90;;;;;;5067756;28;20639;-62
2022/01/10 01:50:36;;;;;;;12.93;6.13;;;0.70;99.90;;;;;;5059960;28;20202;-63
2022/01/10 01:53:04;;;;;;;11.27;6.10;;;0.70;99.90;;;;;;5059173;28;20287;-62
2022/01/10 01:55:33;;;;;;;11.50;5.83;;;0.60;99.90;;;;;;5086220;28;20228;-62
2022/01/10 01:58:00;;;;;;;10.13;5.60;;;0.60;99.90;;;;;;5061780;28;20258;-62
2022/01/10 02:00:28;;;;;;;16.77;8.33;;;0.60;99.90;;;;;;5064232;28;20192;-64
2022/01/10 02:02:56;;;;;;;14.03;6.90;;;0.60;99.90;;;;;;5088144;28;20207;-61
2022/01/10 02:05:26;;;;;;;11.37;6.10;;;0.60;99.90;;;;;;5062656;28;20208;-62
2022/01/10 02:07:53;;;;;;;20.43;9.63;;;0.60;99.90;;;;;;5078321;28;20207;-62
2022/01/10 02:10:20;;;;;;;14.57;6.90;;;0.60;99.90;;;;;;5084462;28;20509;-62
2022/01/10 02:12:49;;;;;;;14.83;6.90;;;0.60;99.90;;;;;;5084404;28;20573;-61
2022/01/10 02:15:31;;;;;;;14.07;6.03;;;0.60;99.90;;;;;;5066817;28;20239;-62
2022/01/10 02:18:00;;;;;;;11.20;6.20;;;0.60;99.90;;;;;;5061826;28;20206;-63
2022/01/10 02:20:31;;;;;;;10.73;6.03;;;0.50;99.90;;;;;;5060723;28;20196;-63
2022/01/10 02:22:58;;;;;;;11.27;5.60;;;0.50;99.90;;;;;;5072541;28;20194;-63
2022/01/10 02:25:52;;;;;;;11.57;6.23;;;0.50;99.90;;;;;;5059885;28;20212;-63
2022/01/10 02:28:25;;;;;;;9.73;5.40;;;0.40;99.90;;;;;;5070057;28;20283;-63
2022/01/10 02:30:57;;;;;;;9.13;5.03;;;0.40;99.90;;;;;;5078690;28;20719;-64
2022/01/10 02:33:25;;;;;;;8.53;4.80;;;0.40;99.90;;;;;;5089856;28;20275;-63
2022/01/10 02:36:02;;;;;;;17.37;7.80;;;0.40;99.90;;;;;;5061080;28;20265;-64
2022/01/10 02:38:30;;;;;;;15.53;6.90;;;0.40;99.90;;;;;;5061430;28;20250;-63
2022/01/10 02:40:58;;;;;;;11.97;5.70;;;0.50;99.90;;;;;;5088407;28;20200;-63
2022/01/10 02:43:26;;;;;;;11.50;5.90;;;0.50;99.90;;;;;;5070389;28;20274;-63
2022/01/10 02:45:55;;;;;;;13.80;6.67;;;0.50;99.90;;;;;;5090087;28;20211;-62
2022/01/10 02:48:22;;;;;;;12.00;6.40;;;0.50;99.90;;;;;;5090130;28;20200;-63
2022/01/10 02:50:50;;;;;;;11.27;5.80;;;0.50;99.90;;;;;;5063405;28;20208;-63
2022/01/10 02:53:19;;;;;;;11.33;5.93;;;0.50;99.90;;;;;;5060281;28;20222;-63
2022/01/10 02:55:46;;;;;;;11.13;5.77;;;0.50;99.90;;;;;;5077812;28;20232;-61
2022/01/10 02:58:13;;;;;;;11.00;5.43;;;0.50;99.90;;;;;;5071950;28;20285;-62
2022/01/10 03:00:41;;;;;;;12.63;6.80;;;0.60;99.90;;;;;;5063694;28;20202;-63
2022/01/10 03:03:08;;;;;;;10.77;6.00;;;0.50;99.90;;;;;;5090831;28;20203;-63
2022/01/10 03:05:36;;;;;;;20.13;9.03;;;0.50;99.90;;;;;;5071080;28;20280;-64
2022/01/10 03:08:03;;;;;;;15.30;6.83;;;0.40;99.90;;;;;;5070770;28;20664;-64
2022/01/10 03:10:34;;;;;;;12.73;6.57;;;0.50;99.90;;;;;;5085124;28;20207;-63
2022/01/10 03:13:02;;;;;;;11.37;5.90;;;0.50;99.90;;;;;;5082277;28;20614;-62
2022/01/10 03:15:29;;;;;;;29.77;12.70;;;0.40;99.90;;;;;;5090357;28;20188;-62
2022/01/10 03:17:57;;;;;;;23.87;11.23;;;0.40;99.90;;;;;;5076618;28;20192;-62
2022/01/10 03:20:24;;;;;;;18.47;9.20;;;0.40;99.90;;;;;;5066620;28;20281;-63
2022/01/10 03:22:51;;;;;;;14.97;7.40;;;0.30;99.90;;;;;;5065798;28;20192;-61
2022/01/10 03:25:19;;;;;;;19.23;9.33;;;0.30;99.90;;;;;;5075269;28;20193;-62
2022/01/10 03:27:49;;;;;;;26.17;12.03;;;0.30;99.90;;;;;;5065292;28;20221;-62
2022/01/10 03:30:17;;;;;;;25.10;11.37;;;0.30;99.90;;;;;;5064464;28;20204;-62
2022/01/10 03:32:47;;;;;;;23.90;10.70;;;0.30;99.90;;;;;;5060822;28;20278;-62
2022/01/10 03:35:26;;;;;;;22.77;9.33;;;0.20;99.90;;;;;;5069590;28;20196;-62
2022/01/10 03:37:53;;;;;;;18.87;8.10;;;0.30;99.90;;;;;;5078006;28;20258;-63
2022/01/10 03:40:22;;;;;;;13.03;7.07;;;0.20;99.90;;;;;;5065873;28;20213;-63
2022/01/10 03:42:53;;;;;;;14.43;7.00;;;0.30;99.90;;;;;;5063456;28;20214;-62
2022/01/10 03:45:20;;;;;;;13.67;6.30;;;0.30;99.90;;;;;;5077777;28;20247;-62
2022/01/10 03:47:47;;;;;;;11.83;6.50;;;0.20;99.90;;;;;;5066840;28;20208;-62
2022/01/10 03:50:15;;;;;;;16.03;7.30;;;0.30;99.90;;;;;;5072493;28;20656;-63
2022/01/10 03:52:42;;;;;;;9.40;5.53;;;0.30;99.90;;;;;;5067290;28;20277;-63
2022/01/10 03:55:10;;;;;;;11.73;6.07;;;0.30;99.90;;;;;;5063458;28;20226;-63
2022/01/10 03:57:38;;;;;;;11.13;5.40;;;0.30;99.90;;;;;;5064495;28;20213;-62
2022/01/10 04:00:09;;;;;;;10.50;5.00;;;0.40;99.90;;;;;;5062390;28;20569;-62
2022/01/10 04:02:52;;;;;;;8.93;4.97;;;0.30;99.90;;;;;;5071016;28;20200;-62
2022/01/10 04:05:24;;;;;;;7.83;4.20;;;0.30;99.90;;;;;;5063212;28;20259;-63
2022/01/10 04:07:51;;;;;;;8.10;4.40;;;0.30;99.90;;;;;;5058599;28;20209;-63
2022/01/10 04:10:18;;;;;;;11.47;4.80;;;0.30;99.90;;;;;;5064370;28;20284;-63
2022/01/10 04:12:46;;;;;;;7.47;5.03;;;0.20;99.90;;;;;;5061754;28;20751;-63
2022/01/10 04:15:15;;;;;;;8.37;4.80;;;0.20;99.90;;;;;;5067274;28;20668;-63
2022/01/10 04:17:42;;;;;;;11.70;5.23;;;0.20;99.90;;;;;;5059992;28;20194;-63
2022/01/10 04:20:10;;;;;;;9.00;4.73;;;0.20;99.90;;;;;;5066266;28;20210;-64
2022/01/10 04:22:37;;;;;;;11.67;5.20;;;0.20;99.90;;;;;;5070942;28;20205;-63
2022/01/10 04:25:06;;;;;;;10.63;5.07;;;0.30;99.90;;;;;;5069096;28;20210;-63
2022/01/10 04:27:33;;;;;;;10.17;5.30;;;0.20;99.90;;;;;;5072075;28;20304;-63
2022/01/10 04:30:01;;;;;;;10.00;5.00;;;0.20;99.90;;;;;;5071198;28;20189;-64
2022/01/10 04:32:32;;;;;;;14.43;7.07;;;0.20;99.90;;;;;;5069495;28;20303;-63
2022/01/10 04:35:00;;;;;;;24.33;10.57;;;0.10;99.90;;;;;;5063530;28;20200;-63
2022/01/10 04:37:28;;;;;;;29.10;12.27;;;0.20;99.90;;;;;;5061713;28;20201;-64
2022/01/10 04:39:55;;;;;;;22.70;10.23;;;0.20;99.90;;;;;;5062067;28;20297;-64
2022/01/10 04:42:23;;;;;;;22.03;10.10;;;0.20;99.90;;;;;;5063003;28;20198;-63
2022/01/10 04:44:51;;;;;;;19.10;8.87;;;0.20;99.90;;;;;;5068809;28;20207;-63
2022/01/10 04:47:21;;;;;;;32.23;13.37;;;0.20;99.90;;;;;;5052503;28;20205;-62
2022/01/10 04:50:19;;;;;;;20.30;9.73;;;0.20;99.90;;;;;;5059333;28;20211;-63
2022/01/10 04:52:47;;;;;;;21.93;9.60;;;0.20;99.90;;;;;;5066545;28;20569;-63
2022/01/10 04:55:15;;;;;;;26.30;11.60;;;0.20;99.90;;;;;;5071856;28;20250;-62
2022/01/10 04:57:42;;;;;;;18.57;8.80;;;0.20;99.90;;;;;;5062602;28;20200;-63
2022/01/10 05:00:13;;;;;;;15.07;7.47;;;0.30;99.90;;;;;;5073382;28;20208;-62
2022/01/10 05:02:42;;;;;;;15.37;8.23;;;0.20;99.90;;;;;;5066161;28;20205;-63
2022/01/10 05:05:11;;;;;;;14.03;7.40;;;0.10;99.90;;;;;;5065427;28;20261;-64
2022/01/10 05:07:39;;;;;;;17.17;7.47;;;0.10;99.90;;;;;;5070067;28;20618;-64
2022/01/10 05:10:07;;;;;;;10.70;5.97;;;0.10;99.90;;;;;;5068906;28;20207;-64
2022/01/10 05:12:37;;;;;;;12.13;5.73;;;0.00;99.90;;;;;;5060165;28;20220;-63
2022/01/10 05:15:04;;;;;;;11.23;5.90;;;0.00;99.90;;;;;;5063586;28;20577;-62
2022/01/10 05:17:31;;;;;;;11.77;6.77;;;0.00;99.90;;;;;;5084009;28;20786;-63
2022/01/10 05:19:59;;;;;;;10.63;5.63;;;0.00;99.90;;;;;;5080564;28;20227;-62
2022/01/10 05:22:27;;;;;;;20.47;8.80;;;0.00;99.90;;;;;;5069559;28;20207;-63
2022/01/10 05:24:55;;;;;;;16.13;7.50;;;0.10;99.90;;;;;;5091806;28;20341;-63
2022/01/10 05:27:22;;;;;;;14.63;7.60;;;0.00;99.90;;;;;;5063970;28;20671;-63
2022/01/10 05:29:51;;;;;;;20.47;8.23;;;0.00;99.90;;;;;;5073113;28;20200;-62
2022/01/10 05:32:18;;;;;;;22.50;10.50;;;0.00;99.90;;;;;;5061474;28;20679;-61
2022/01/10 05:35:03;;;;;;;43.17;17.17;;;0.00;99.90;;;;;;5069301;28;20206;-64
2022/01/10 05:37:31;;;;;;;45.33;17.83;;;0.00;99.90;;;;;;5069442;28;20207;-63
2022/01/10 05:39:58;;;;;;;32.77;14.97;;;0.00;99.90;;;;;;5082243;28;20218;-62
2022/01/10 05:42:25;;;;;;;28.30;12.73;;;0.00;99.90;;;;;;5081853;28;20184;-62
2022/01/10 05:44:53;;;;;;;22.67;10.70;;;0.00;99.90;;;;;;5069742;28;20661;-63
2022/01/10 05:47:20;;;;;;;31.83;12.83;;;0.00;99.90;;;;;;5065854;28;20205;-62
2022/01/10 05:49:49;;;;;;;25.90;12.03;;;0.10;99.90;;;;;;5065401;28;20200;-64
2022/01/10 05:52:21;;;;;;;25.97;10.33;;;0.20;99.90;;;;;;5055642;28;20711;-63
2022/01/10 05:54:54;;;;;;;20.87;9.60;;;0.20;99.90;;;;;;5068164;28;20241;-64
2022/01/10 05:57:22;;;;;;;48.17;18.83;;;0.20;99.90;;;;;;5063605;28;20674;-63
2022/01/10 05:59:53;;;;;;;54.17;22.50;;;0.30;99.90;;;;;;5068280;28;20205;-64
2022/01/10 06:02:22;;;;;;;48.53;19.97;;;0.30;99.90;;;;;;5070831;28;20236;-64
2022/01/10 06:04:50;;;;;;;43.50;17.87;;;0.30;99.90;;;;;;5073870;28;20246;-63
2022/01/10 06:07:27;;;;;;;36.07;15.17;;;0.30;99.90;;;;;;5065596;28;20203;-63
2022/01/10 06:09:56;;;;;;;29.17;13.87;;;0.30;99.90;;;;;;5068248;28;20199;-64
2022/01/10 06:12:23;;;;;;;32.83;13.90;;;0.40;99.90;;;;;;5062913;28;20216;-63
2022/01/10 06:14:50;;;;;;;38.43;15.07;;;0.40;99.90;;;;;;5066065;28;20204;-63
2022/01/10 06:17:17;;;;;;;34.00;14.10;;;0.50;99.90;;;;;;5069638;28;20692;-62
2022/01/10 06:19:44;;;;;;;27.20;11.63;;;0.40;99.90;;;;;;5082323;28;20204;-63
2022/01/10 06:22:11;;;;;;;22.17;9.97;;;0.50;99.90;;;;;;5063569;28;20281;-62
2022/01/10 06:24:39;;;;;;;20.27;9.40;;;0.50;99.90;;;;;;5071822;28;20680;-62
2022/01/10 06:27:08;;;;;;;17.93;7.50;;;0.50;99.90;;;;;;5066359;28;20228;-61
2022/01/10 06:29:36;;;;;;;14.93;7.87;;;0.50;99.90;;;;;;5061700;28;20204;-63
2022/01/10 06:32:03;;;;;;;19.87;8.53;;;0.40;99.90;;;;;;5080357;28;20736;-62
2022/01/10 06:34:31;;;;;;;15.03;7.30;;;0.50;99.90;;;;;;5063168;28;20208;-63
2022/01/10 06:36:59;;;;;;;15.13;7.20;;;0.40;99.90;;;;;;5071794;28;20204;-64
2022/01/10 06:39:26;;;;;;;12.90;6.63;;;0.50;99.90;;;;;;5073049;28;20200;-62
2022/01/10 06:41:53;;;;;;;13.40;6.30;;;0.40;99.90;;;;;;5082821;28;20739;-63
2022/01/10 06:44:23;;;;;;;12.77;5.90;;;0.40;99.90;;;;;;5063030;28;20669;-63
2022/01/10 06:46:50;;;;;;;12.07;6.03;;;0.50;99.90;;;;;;5074849;28;20197;-63
2022/01/10 06:49:18;;;;;;;10.47;5.73;;;0.50;99.90;;;;;;5066706;28;20281;-63
2022/01/10 06:51:45;;;;;;;9.67;5.23;;;0.50;99.90;;;;;;5065349;28;20203;-62
2022/01/10 06:54:14;;;;;;;12.97;6.23;;;0.40;99.90;;;;;;5078327;28;20631;-62
2022/01/10 06:56:41;;;;;;;11.43;5.97;;;0.50;99.90;;;;;;5068477;28;20192;-63
2022/01/10 06:59:09;;;;;;;11.53;5.33;;;0.40;99.90;;;;;;5058662;28;20200;-62
2022/01/10 07:01:44;;;;;;;9.57;5.03;;;0.40;99.90;;;;;;5062093;28;20224;-63
2022/01/10 07:04:12;;;;;;;7.30;4.27;;;0.40;99.90;;;;;;5066790;28;20284;-62
2022/01/10 07:06:41;;;;;;;8.77;4.40;;;0.40;99.90;;;;;;5064197;28;20297;-63
2022/01/10 07:09:15;;;;;;;7.50;4.63;;;0.40;99.90;;;;;;5065285;28;20223;-64
2022/01/10 07:11:55;;;;;;;7.57;4.40;;;0.40;99.90;;;;;;5061941;28;20357;-62
2022/01/10 07:14:23;;;;;;;8.17;4.73;;;0.40;99.90;;;;;;5061867;28;20217;-63
2022/01/10 07:16:54;;;;;;;7.43;4.30;;;0.30;99.90;;;;;;5066463;28;20664;-64
2022/01/10 07:19:22;;;;;;;9.87;4.53;;;0.40;99.90;;;;;;5070706;28;20204;-63
2022/01/10 07:21:50;;;;;;;6.60;4.07;;;0.40;99.90;;;;;;5070653;28;20253;-63
2022/01/10 07:24:18;;;;;;;9.93;4.97;;;0.40;99.90;;;;;;5058969;28;20303;-63
2022/01/10 07:26:45;;;;;;;12.00;5.23;;;0.40;99.90;;;;;;5075735;28;20204;-63
2022/01/10 07:29:12;;;;;;;9.80;5.10;;;0.50;99.90;;;;;;5089212;28;20283;-64
2022/01/10 07:31:39;;;;;;;7.53;4.40;;;0.40;99.90;;;;;;5090086;28;20196;-62
2022/01/10 07:34:11;;;;;;;8.33;4.77;;;0.40;99.90;;;;;;5075145;28;20209;-63
2022/01/10 07:36:38;;;;;;;9.63;5.00;;;0.30;99.90;;;;;;5086547;28;20184;-62
2022/01/10 07:39:06;;;;;;;8.23;4.80;;;0.30;99.90;;;;;;5082098;28;20525;-63
2022/01/10 07:41:33;;;;;;;8.90;4.73;;;0.30;99.90;;;;;;5090127;28;20199;-63
2022/01/10 07:44:00;;;;;;;9.37;5.03;;;0.30;99.90;;;;;;5080034;28;20184;-63
2022/01/10 07:46:28;;;;;;;8.80;4.50;;;0.30;99.90;;;;;;5065329;28;20731;-63
2022/01/10 07:48:55;;;;;;;9.90;5.03;;;0.40;99.90;;;;;;5090382;28;20675;-64
2022/01/10 07:51:24;;;;;;;9.83;5.13;;;0.30;99.90;;;;;;5090389;28;20672;-63
2022/01/10 07:53:51;;;;;;;8.30;4.73;;;0.40;99.90;;;;;;5092038;28;20196;-64
2022/01/10 07:56:19;;;;;;;9.20;4.70;;;0.40;99.90;;;;;;5084941;28;20225;-63
2022/01/10 07:58:48;;;;;;;10.33;4.93;;;0.40;99.90;;;;;;5092472;28;20196;-63
2022/01/10 08:01:15;;;;;;;7.87;4.33;;;0.40;99.90;;;;;;5062196;28;20623;-63
2022/01/10 08:03:42;;;;;;;10.60;5.07;;;0.30;99.90;;;;;;5088713;28;20188;-62
2022/01/10 08:06:09;;;;;;;9.17;4.67;;;0.40;99.90;;;;;;5092550;28;20200;-64
2022/01/10 08:08:37;;;;;;;8.60;4.60;;;0.40;99.90;;;;;;5092256;28;20192;-63
2022/01/10 08:11:05;;;;;;;8.80;4.57;;;0.40;99.90;;;;;;5085289;28;20200;-64
2022/01/10 08:13:32;;;;;;;10.87;6.17;;;0.40;99.90;;;;;;5067969;28;20575;-64
2022/01/10 08:15:59;;;;;;;16.13;7.30;;;0.40;99.90;;;;;;5087885;28;20196;-63
2022/01/10 08:18:26;;;;;;;41.73;14.43;;;0.40;99.90;;;;;;5081626;28;20216;-64
2022/01/10 08:20:53;;;;;;;52.00;20.73;;;0.50;99.90;;;;;;5061948;28;20201;-62
2022/01/10 08:23:20;;;;;;;52.97;20.63;;;0.60;99.90;;;;;;5078391;28;20185;-62
2022/01/10 08:25:49;;;;;;;52.70;19.97;;;0.60;99.90;;;;;;5084885;28;20188;-62
2022/01/10 08:28:16;;;;;;;40.43;17.20;;;0.60;99.90;;;;;;5072877;28;20212;-63
2022/01/10 08:30:44;;;;;;;33.47;14.77;;;0.70;99.90;;;;;;5086662;28;20199;-63
2022/01/10 08:33:11;;;;;;;29.27;12.57;;;0.70;99.90;;;;;;5074212;28;20209;-63
2022/01/10 08:35:38;;;;;;;24.73;11.10;;;0.70;99.90;;;;;;5074555;28;20197;-63
2022/01/10 08:38:05;;;;;;;31.13;12.43;;;0.80;99.90;;;;;;5086511;28;20594;-64
2022/01/10 08:40:33;;;;;;;27.97;11.47;;;0.80;99.90;;;;;;5086516;28;20242;-62
2022/01/10 08:43:06;;;;;;;39.00;16.10;;;0.80;99.90;;;;;;5086321;28;20188;-63
2022/01/10 08:45:33;;;;;;;37.17;14.77;;;0.90;99.90;;;;;;5091837;28;20227;-62
2022/01/10 08:48:00;;;;;;;36.33;13.50;;;0.90;99.90;;;;;;5077012;28;20595;-63
2022/01/10 08:50:28;;;;;;;41.60;17.13;;;1.00;99.90;;;;;;5079681;28;20211;-62
2022/01/10 08:52:55;;;;;;;35.57;14.67;;;1.10;99.90;;;;;;5090002;28;20221;-63
2022/01/10 08:55:22;;;;;;;28.20;12.70;;;1.10;99.90;;;;;;5078969;28;20350;-63
2022/01/10 08:57:49;;;;;;;24.13;11.30;;;1.10;99.90;;;;;;5091246;28;20200;-63
2022/01/10 09:00:18;;;;;;;50.70;20.50;;;1.20;99.90;;;;;;5091190;28;20192;-63
2022/01/10 09:02:45;;;;;;;34.33;14.20;;;1.20;99.90;;;;;;5080404;28;20204;-63
2022/01/10 09:05:12;;;;;;;38.67;15.23;;;1.30;99.90;;;;;;5072224;28;20204;-63
2022/01/10 09:07:39;;;;;;;32.73;13.60;;;1.40;99.90;;;;;;5068729;28;20212;-62
2022/01/10 09:10:07;;;;;;;23.63;12.03;;;1.40;99.90;;;;;;5068710;28;20236;-63
2022/01/10 09:12:35;;;;;;;26.70;11.70;;;1.50;99.90;;;;;;5087063;28;20204;-63
2022/01/10 09:15:03;;;;;;;19.67;9.83;;;1.60;99.90;;;;;;5089774;28;20212;-64
2022/01/10 09:17:31;;;;;;;22.93;10.57;;;1.60;99.90;;;;;;5068451;28;20215;-62
2022/01/10 09:19:59;;;;;;;23.73;10.70;;;1.70;99.90;;;;;;5071738;28;20537;-64
2022/01/10 09:22:26;;;;;;;19.37;9.17;;;1.70;99.90;;;;;;5090406;28;20227;-63
2022/01/10 09:24:53;;;;;;;20.07;9.87;;;1.80;99.90;;;;;;5079919;28;20215;-63
2022/01/10 09:27:20;;;;;;;14.13;7.63;;;1.80;99.90;;;;;;5071988;28;20266;-62
2022/01/10 09:29:49;;;;;;;21.80;10.03;;;1.90;99.90;;;;;;5091600;28;20192;-64
2022/01/10 09:32:16;;;;;;;15.40;8.07;;;2.00;99.90;;;;;;5086194;28;20201;-64
2022/01/10 09:34:45;;;;;;;16.57;8.07;;;2.00;99.90;;;;;;5073342;28;20255;-62
2022/01/10 09:37:12;;;;;;;31.47;13.53;;;2.10;99.90;;;;;;5073580;28;20599;-62
2022/01/10 09:39:39;;;;;;;40.70;15.27;;;2.10;99.90;;;;;;5066112;28;20210;-63
2022/01/10 09:42:07;;;;;;;42.37;18.90;;;2.10;99.90;;;;;;5091763;28;20204;-63
2022/01/10 09:44:35;;;;;;;44.60;19.40;;;2.20;99.90;;;;;;5095934;28;20196;-62
2022/01/10 09:47:02;;;;;;;32.73;15.20;;;2.30;99.90;;;;;;5069933;28;20250;-63
2022/01/10 09:49:29;;;;;;;33.93;14.00;;;2.30;99.90;;;;;;5080925;28;20197;-63
2022/01/10 09:51:58;;;;;;;53.60;21.57;;;2.40;99.90;;;;;;5086528;28;20195;-62
2022/01/10 09:54:25;;;;;;;52.00;20.00;;;2.50;99.90;;;;;;5069964;28;20216;-63
2022/01/10 09:56:52;;;;;;;34.60;16.10;;;2.50;99.90;;;;;;5088376;28;20211;-63
2022/01/10 09:59:19;;;;;;;47.27;18.70;;;2.60;99.90;;;;;;5079531;28;20200;-63
2022/01/10 10:01:50;;;;;;;51.67;19.37;;;2.60;99.90;;;;;;5084500;28;20275;-62
2022/01/10 10:04:18;;;;;;;55.33;21.33;;;2.70;99.90;;;;;;5073047;28;20199;-63
2022/01/10 10:06:47;;;;;;;44.37;18.23;;;2.70;99.90;;;;;;5074693;28;20217;-63
2022/01/10 10:09:16;;;;;;;39.63;15.47;;;2.80;99.90;;;;;;5086321;28;20192;-63
2022/01/10 10:11:46;;;;;;;55.13;20.23;;;2.80;99.90;;;;;;5083483;28;20704;-63
2022/01/10 10:14:15;;;;;;;42.90;18.27;;;2.90;99.90;;;;;;5088289;28;20548;-62
2022/01/10 10:16:49;;;;;;;46.40;19.23;;;2.90;99.90;;;;;;5089432;28;20193;-63
2022/01/10 10:19:17;;;;;;;41.03;16.80;;;3.00;99.90;;;;;;5084314;28;20275;-63
2022/01/10 10:21:45;;;;;;;29.40;13.70;;;3.10;99.90;;;;;;5076601;28;20201;-63
2022/01/10 10:24:13;;;;;;;36.40;15.53;;;3.20;99.90;;;;;;5077422;28;20197;-63
2022/01/10 10:26:42;;;;;;;31.27;12.73;;;3.30;99.90;;;;;;5065153;28;20204;-63
2022/01/10 10:29:13;;;;;;;26.17;11.30;;;3.40;99.90;;;;;;5076811;28;20193;-62
2022/01/10 10:31:45;;;;;;;20.53;8.33;;;3.50;99.90;;;;;;5072048;28;20240;-62
2022/01/10 10:34:17;;;;;;;16.50;8.17;;;3.60;99.90;;;;;;5072650;28;20208;-63
2022/01/10 10:36:45;;;;;;;27.30;12.23;;;3.70;99.90;;;;;;5084496;28;20667;-62
2022/01/10 10:39:12;;;;;;;20.53;10.47;;;3.80;99.90;;;;;;5083495;28;20185;-62
2022/01/10 10:41:42;;;;;;;19.47;8.90;;;3.90;99.90;;;;;;5085751;28;20533;-62
2022/01/10 10:44:09;;;;;;;15.70;7.90;;;4.00;99.90;;;;;;5079940;28;20197;-62
2022/01/10 10:46:37;;;;;;;13.30;6.50;;;4.10;99.90;;;;;;5078204;28;20517;-63
2022/01/10 10:49:04;;;;;;;11.60;5.90;;;4.20;99.90;;;;;;5082761;28;20242;-64
2022/01/10 10:51:34;;;;;;;10.57;6.20;;;4.30;99.90;;;;;;5083731;28;20196;-62
2022/01/10 10:54:04;;;;;;;11.40;5.53;;;4.30;99.90;;;;;;5088748;28;20206;-62
2022/01/10 10:56:36;;;;;;;11.87;6.07;;;4.40;99.90;;;;;;5080373;28;20277;-62
2022/01/10 10:59:04;;;;;;;16.93;8.50;;;4.40;99.90;;;;;;5085755;28;20242;-62
2022/01/10 11:01:32;;;;;;;16.63;8.17;;;4.50;99.90;;;;;;5077426;28;20251;-62
2022/01/10 11:03:59;;;;;;;20.00;9.60;;;4.50;99.90;;;;;;5061582;28;20549;-63
2022/01/10 11:06:29;;;;;;;20.67;9.90;;;4.60;99.90;;;;;;5075953;28;20207;-62
2022/01/10 11:08:58;;;;;;;16.37;8.27;;;4.60;99.90;;;;;;5081520;28;20200;-62
2022/01/10 11:11:25;;;;;;;25.93;12.07;;;4.70;99.90;;;;;;5079462;28;20275;-62
2022/01/10 11:13:55;;;;;;;19.53;9.70;;;4.80;99.90;;;;;;5087454;28;20212;-63
2022/01/10 11:16:24;;;;;;;18.33;8.70;;;4.80;99.90;;;;;;5083065;28;20185;-62
2022/01/10 11:18:52;;;;;;;14.77;7.20;;;4.80;99.90;;;;;;5073536;28;20196;-63
2022/01/10 11:21:19;;;;;;;9.03;5.93;;;4.80;99.90;;;;;;5063719;28;20254;-62
2022/01/10 11:23:48;;;;;;;9.20;4.93;;;4.80;99.90;;;;;;5075999;28;20192;-63
2022/01/10 11:26:17;;;;;;;9.57;5.30;;;4.80;99.90;;;;;;5063536;28;20197;-63
2022/01/10 11:28:49;;;;;;;6.30;3.97;;;4.70;99.90;;;;;;5081001;28;20196;-62
2022/01/10 11:31:22;;;;;;;5.30;3.73;;;4.70;99.90;;;;;;5063400;28;20215;-62
2022/01/10 11:33:51;;;;;;;5.60;3.43;;;4.70;99.90;;;;;;5070921;28;20216;-62
2022/01/10 11:36:21;;;;;;;4.67;3.87;;;4.60;99.90;;;;;;5089520;28;20229;-62
2022/01/10 11:38:50;;;;;;;4.17;2.97;;;4.50;99.90;;;;;;5089368;28;20196;-63
2022/01/10 11:41:20;;;;;;;5.13;3.23;;;4.50;99.90;;;;;;5089976;28;20192;-63
2022/01/10 11:43:51;;;;;;;4.20;2.90;;;4.50;99.90;;;;;;5089744;28;20207;-63
2022/01/10 11:46:27;;;;;;;7.20;4.37;;;4.40;99.90;;;;;;5080396;28;20652;-63
2022/01/10 11:48:59;;;;;;;8.80;4.70;;;4.40;99.90;;;;;;5069590;28;20298;-62
2022/01/10 11:51:29;;;;;;;7.13;4.20;;;4.30;99.90;;;;;;5086946;28;20217;-63
2022/01/10 11:54:07;;;;;;;6.50;3.80;;;4.20;99.90;;;;;;5080019;28;20209;-63
2022/01/10 11:56:36;;;;;;;8.70;3.83;;;4.20;99.90;;;;;;5068055;28;20241;-63
2022/01/10 11:59:18;;;;;;;4.97;3.27;;;4.20;99.90;;;;;;5088199;28;20196;-63
2022/01/10 12:01:49;;;;;;;5.43;3.40;;;4.20;99.90;;;;;;5084588;28;20283;-63
2022/01/10 12:04:18;;;;;;;3.83;2.93;;;4.20;99.90;;;;;;5089947;28;20184;-64
2022/01/10 12:06:45;;;;;;;4.83;3.33;;;4.10;99.90;;;;;;5065097;28;20208;-63
2022/01/10 12:09:13;;;;;;;4.67;2.97;;;4.10;99.90;;;;;;5080149;28;20548;-63
2022/01/10 12:11:41;;;;;;;3.43;2.80;;;4.10;99.90;;;;;;5083036;28;20205;-63
2022/01/10 12:14:09;;;;;;;5.63;2.83;;;4.10;99.90;;;;;;5065799;28;20225;-64
2022/01/10 12:16:37;;;;;;;5.37;3.00;;;4.10;99.90;;;;;;5088601;28;21025;-63
2022/01/10 12:19:05;;;;;;;4.70;2.87;;;4.10;99.90;;;;;;5082737;28;20284;-62
2022/01/10 12:21:34;;;;;;;3.00;2.20;;;4.10;99.90;;;;;;5082686;28;20219;-63
2022/01/10 12:24:02;;;;;;;3.67;2.57;;;4.00;99.90;;;;;;5083156;28;20192;-63
2022/01/10 12:26:29;;;;;;;2.70;2.30;;;4.00;99.90;;;;;;5081631;28;20196;-63
2022/01/10 12:28:59;;;;;;;7.50;4.27;;;4.00;99.90;;;;;;5091580;28;20210;-62
2022/01/10 12:31:28;;;;;;;7.40;4.37;;;4.00;99.90;;;;;;5092499;28;20192;-62
2022/01/10 12:33:56;;;;;;;8.75;5.40;;;4.00;99.90;;;;;;5076689;28;20473;-63
2022/01/10 12:36:25;;;;;;;8.63;5.43;;;4.00;99.90;;;;;;5074519;28;20207;-63
2022/01/10 12:38:58;;;;;;;10.63;6.00;;;4.00;99.90;;;;;;5091916;28;20196;-63
2022/01/10 12:41:26;;;;;;;11.23;6.57;;;4.00;99.90;;;;;;5080406;28;20254;-64
2022/01/10 12:43:53;;;;;;;9.57;5.23;;;4.10;99.90;;;;;;5075513;28;20572;-63
2022/01/10 12:46:22;;;;;;;7.57;4.60;;;4.10;99.90;;;;;;5083591;28;20189;-64
2022/01/10 12:48:51;;;;;;;7.13;4.50;;;4.00;99.90;;;;;;5090189;28;20228;-64
2022/01/10 12:51:20;;;;;;;8.47;4.97;;;4.00;99.90;;;;;;5082222;28;20229;-63
2022/01/10 12:53:51;;;;;;;7.90;4.73;;;4.00;99.90;;;;;;5085407;28;20197;-63
2022/01/10 12:56:22;;;;;;;7.40;3.80;;;4.00;99.90;;;;;;5087764;28;20232;-63
2022/01/10 12:58:50;;;;;;;6.53;3.80;;;4.00;99.90;;;;;;5074407;28;20563;-63